Time;durP1;ratioP1;P1;durP2;ratioP2;P2;SDS_P1;SDS_P2;PMS_P1;PMS_P2;Temp;Humidity;BMP_temperature;BMP_pressure;BME280_temperature;BME280_humidity;BME280_pressure;Samples;Min_cycle;Max_cycle;Signal;HPM_P1;HPM_P2
2022/07/10 00:01:30;;;;;;;6.05;3.63;;;18.60;99.90;;;;;;5034166;28;20198;-75
2022/07/10 00:03:56;;;;;;;5.45;3.63;;;18.60;99.90;;;;;;5034356;28;20659;-75
2022/07/10 00:06:21;;;;;;;8.02;3.95;;;18.50;99.90;;;;;;5033932;28;20197;-75
2022/07/10 00:08:47;;;;;;;4.72;3.40;;;18.50;99.90;;;;;;5016360;28;20632;-75
2022/07/10 00:11:13;;;;;;;3.40;3.08;;;18.50;99.90;;;;;;5033980;28;20189;-75
2022/07/10 00:13:38;;;;;;;3.95;3.00;;;18.50;99.90;;;;;;5034042;28;20222;-75
2022/07/10 00:16:04;;;;;;;4.70;3.00;;;18.50;99.90;;;;;;5033934;28;20786;-76
2022/07/10 00:18:30;;;;;;;3.47;2.63;;;18.50;99.90;;;;;;5034016;28;20185;-76
2022/07/10 00:20:55;;;;;;;3.30;2.75;;;18.50;99.90;;;;;;5033792;28;20178;-76
2022/07/10 00:23:21;;;;;;;3.55;2.50;;;18.50;99.90;;;;;;5033931;28;20542;-75
2022/07/10 00:25:46;;;;;;;3.33;3.03;;;18.50;99.90;;;;;;5033531;28;20178;-75
2022/07/10 00:28:12;;;;;;;4.60;3.33;;;18.50;99.90;;;;;;5033862;28;20179;-76
2022/07/10 00:30:38;;;;;;;4.57;4.03;;;18.40;99.90;;;;;;5033487;28;20185;-76
2022/07/10 00:33:04;;;;;;;5.07;4.30;;;18.40;99.90;;;;;;5032761;28;20254;-75
2022/07/10 00:35:29;;;;;;;5.53;4.30;;;18.40;99.90;;;;;;5033514;28;20190;-75
2022/07/10 00:37:55;;;;;;;5.65;4.55;;;18.30;99.90;;;;;;5033524;28;20189;-76
2022/07/10 00:40:20;;;;;;;6.10;5.25;;;18.30;99.90;;;;;;5033435;28;20233;-76
2022/07/10 00:42:46;;;;;;;7.20;5.38;;;18.30;99.90;;;;;;5033654;28;20213;-76
2022/07/10 00:45:12;;;;;;;6.95;5.30;;;18.30;99.90;;;;;;5033453;28;20196;-75
2022/07/10 00:47:38;;;;;;;7.45;4.97;;;18.20;99.90;;;;;;5033808;28;20182;-76
2022/07/10 00:50:05;;;;;;;7.97;5.40;;;18.20;99.90;;;;;;5015578;28;20294;-76
2022/07/10 00:52:30;;;;;;;6.75;5.32;;;18.20;99.90;;;;;;5033324;28;20210;-76
2022/07/10 00:54:57;;;;;;;7.07;5.45;;;18.10;99.90;;;;;;5033186;28;20547;-75
2022/07/10 00:57:23;;;;;;;6.43;5.38;;;18.10;99.90;;;;;;5014507;28;20186;-76
2022/07/10 00:59:49;;;;;;;5.40;4.72;;;18.10;99.90;;;;;;4995967;28;20187;-76
2022/07/10 01:02:16;;;;;;;5.18;4.15;;;18.00;99.90;;;;;;5013527;28;20175;-75
2022/07/10 01:04:42;;;;;;;4.38;3.45;;;18.00;99.90;;;;;;5024756;28;20536;-76
2022/07/10 01:07:07;;;;;;;4.00;3.33;;;18.00;99.90;;;;;;5032396;28;20269;-74
2022/07/10 01:09:33;;;;;;;5.88;3.35;;;17.90;99.90;;;;;;5030653;28;20546;-73
2022/07/10 01:12:03;;;;;;;3.90;3.50;;;17.90;99.90;;;;;;5030103;28;20232;-74
2022/07/10 01:14:31;;;;;;;6.07;3.30;;;17.80;99.90;;;;;;5029523;28;20633;-74
2022/07/10 01:17:00;;;;;;;5.60;3.85;;;17.80;99.90;;;;;;5032902;28;20210;-75
2022/07/10 01:19:25;;;;;;;4.93;4.18;;;17.80;99.90;;;;;;5032393;28;20190;-76
2022/07/10 01:21:51;;;;;;;4.55;3.92;;;17.80;99.90;;;;;;5032114;28;20182;-75
2022/07/10 01:24:17;;;;;;;4.70;4.15;;;17.80;99.90;;;;;;5032257;28;20228;-76
2022/07/10 01:26:43;;;;;;;6.85;4.40;;;17.70;99.90;;;;;;5014621;28;20212;-75
2022/07/10 01:29:11;;;;;;;8.48;5.68;;;17.70;99.90;;;;;;5032188;28;20231;-75
2022/07/10 01:31:37;;;;;;;7.75;5.43;;;17.70;99.90;;;;;;5031697;28;20225;-74
2022/07/10 01:34:06;;;;;;;6.82;5.88;;;17.70;99.90;;;;;;5032033;28;20210;-74
2022/07/10 01:36:31;;;;;;;8.88;6.53;;;17.80;99.90;;;;;;5032133;28;20186;-73
2022/07/10 01:38:58;;;;;;;9.40;6.35;;;17.80;99.90;;;;;;5031500;28;20217;-74
2022/07/10 01:41:24;;;;;;;12.02;6.60;;;17.80;99.90;;;;;;5031987;28;20277;-74
2022/07/10 01:43:51;;;;;;;7.95;6.20;;;17.80;99.90;;;;;;5031754;28;20198;-74
2022/07/10 01:46:18;;;;;;;9.25;6.57;;;17.70;99.90;;;;;;5032203;28;20202;-73
2022/07/10 01:48:43;;;;;;;10.05;6.82;;;17.70;99.90;;;;;;5031724;28;20178;-74
2022/07/10 01:51:11;;;;;;;8.20;6.43;;;17.70;99.90;;;;;;5032527;28;20197;-72
2022/07/10 01:53:37;;;;;;;8.07;6.20;;;17.70;99.90;;;;;;5031063;28;20571;-73
2022/07/10 01:56:08;;;;;;;10.40;6.88;;;17.70;99.90;;;;;;5021572;28;20170;-74
2022/07/10 01:58:34;;;;;;;11.48;6.72;;;17.60;99.90;;;;;;5032382;28;20178;-74
2022/07/10 02:01:01;;;;;;;10.40;6.25;;;17.60;99.90;;;;;;5032307;28;20217;-74
2022/07/10 02:06:10;;;;;;;7.25;5.90;;;17.60;99.90;;;;;;5042934;28;20224;-74
2022/07/10 02:08:36;;;;;;;7.53;6.50;;;17.50;99.90;;;;;;5018849;28;20187;-74
2022/07/10 02:11:01;;;;;;;9.50;6.68;;;17.50;99.90;;;;;;5031762;28;20178;-74
2022/07/10 02:13:27;;;;;;;11.30;6.45;;;17.40;99.90;;;;;;5031307;28;20221;-75
2022/07/10 02:15:54;;;;;;;13.57;6.20;;;17.40;99.90;;;;;;5031290;28;20174;-75
2022/07/10 02:18:20;;;;;;;9.18;6.90;;;17.40;99.90;;;;;;5031759;28;20253;-74
2022/07/10 02:20:46;;;;;;;7.75;6.28;;;17.30;99.90;;;;;;5031115;28;20265;-73
2022/07/10 02:23:12;;;;;;;7.28;6.57;;;17.30;99.90;;;;;;5013578;28;20224;-73
2022/07/10 02:25:37;;;;;;;10.55;5.88;;;17.30;99.90;;;;;;5027919;28;20174;-73
2022/07/10 02:28:03;;;;;;;9.15;6.10;;;17.20;99.90;;;;;;5013344;28;20186;-74
2022/07/10 02:30:29;;;;;;;7.13;5.90;;;17.20;99.90;;;;;;5030296;28;20181;-74
2022/07/10 02:32:54;;;;;;;7.53;6.15;;;17.10;99.90;;;;;;5013187;28;20214;-75
2022/07/10 02:35:20;;;;;;;7.63;6.20;;;17.10;99.90;;;;;;5031137;28;20190;-74
2022/07/10 02:37:45;;;;;;;7.80;6.30;;;17.00;99.90;;;;;;5013944;28;20174;-75
2022/07/10 02:40:11;;;;;;;8.65;6.45;;;17.00;99.90;;;;;;5030749;28;20234;-74
2022/07/10 02:42:37;;;;;;;8.50;6.10;;;17.00;99.90;;;;;;5031197;28;20723;-75
2022/07/10 02:45:03;;;;;;;6.65;5.53;;;16.90;99.90;;;;;;5012983;28;20187;-74
2022/07/10 02:47:29;;;;;;;8.20;5.95;;;16.90;99.90;;;;;;5031074;28;20255;-74
2022/07/10 02:49:54;;;;;;;6.55;5.82;;;16.80;99.90;;;;;;5031056;28;20269;-74
2022/07/10 02:52:20;;;;;;;8.50;6.05;;;16.80;99.90;;;;;;5030538;28;20543;-75
2022/07/10 02:54:45;;;;;;;7.00;5.90;;;16.70;99.90;;;;;;5031436;28;20269;-74
2022/07/10 02:57:11;;;;;;;7.63;5.72;;;16.70;99.90;;;;;;5035598;28;20174;-74
2022/07/10 02:59:36;;;;;;;8.18;6.13;;;16.70;99.90;;;;;;5034739;28;20213;-74
2022/07/10 03:02:02;;;;;;;8.85;6.05;;;16.60;99.90;;;;;;5034730;28;20193;-74
2022/07/10 03:04:28;;;;;;;6.80;5.72;;;16.60;99.90;;;;;;5034596;28;20182;-72
2022/07/10 03:06:53;;;;;;;9.40;5.68;;;16.60;99.90;;;;;;5034357;28;20178;-73
2022/07/10 03:09:19;;;;;;;9.25;5.18;;;16.60;99.90;;;;;;5034643;28;20660;-72
2022/07/10 03:11:44;;;;;;;6.30;5.65;;;16.60;99.90;;;;;;5034461;28;20197;-73
2022/07/10 03:14:10;;;;;;;7.10;5.70;;;16.60;99.90;;;;;;5017002;28;20279;-72
2022/07/10 03:16:36;;;;;;;9.35;5.95;;;16.60;99.90;;;;;;5034509;28;20182;-72
2022/07/10 03:19:01;;;;;;;7.35;5.68;;;16.50;99.90;;;;;;5034333;28;20178;-71
2022/07/10 03:21:27;;;;;;;5.70;4.95;;;16.40;99.90;;;;;;5016844;28;20174;-72
2022/07/10 03:23:52;;;;;;;7.20;5.70;;;16.40;99.90;;;;;;5014965;28;20186;-72
2022/07/10 03:26:18;;;;;;;5.68;5.05;;;16.40;99.90;;;;;;5016141;28;20299;-73
2022/07/10 03:28:43;;;;;;;6.57;4.93;;;16.30;99.90;;;;;;5033858;28;20660;-72
2022/07/10 03:31:09;;;;;;;6.93;5.43;;;16.30;99.90;;;;;;5033519;28;20182;-71
2022/07/10 03:33:34;;;;;;;7.55;5.38;;;16.30;99.90;;;;;;5033950;28;20739;-71
2022/07/10 03:36:01;;;;;;;7.85;5.50;;;16.20;99.90;;;;;;5034251;28;20236;-72
2022/07/10 03:38:27;;;;;;;6.55;5.60;;;16.20;99.90;;;;;;5033984;28;20595;-72
2022/07/10 03:40:53;;;;;;;10.35;5.32;;;16.10;99.90;;;;;;5034277;28;20218;-72
2022/07/10 03:43:18;;;;;;;9.23;5.13;;;16.10;99.90;;;;;;5034184;28;20194;-73
2022/07/10 03:45:44;;;;;;;8.05;5.53;;;16.10;99.90;;;;;;5034004;28;20174;-73
2022/07/10 03:48:09;;;;;;;7.82;5.55;;;16.10;99.90;;;;;;5034353;28;20641;-72
2022/07/10 03:50:35;;;;;;;5.68;5.10;;;16.10;99.90;;;;;;5034035;28;20182;-73
2022/07/10 03:53:00;;;;;;;8.13;5.55;;;16.10;99.90;;;;;;5034284;28;20221;-73
2022/07/10 03:55:26;;;;;;;7.22;5.57;;;16.00;99.90;;;;;;5032963;28;20185;-72
2022/07/10 03:57:54;;;;;;;8.27;5.47;;;16.10;99.90;;;;;;5033978;28;20702;-73
2022/07/10 04:00:22;;;;;;;8.00;5.30;;;16.10;99.90;;;;;;5016652;28;20261;-73
2022/07/10 04:02:48;;;;;;;9.43;5.85;;;16.10;99.90;;;;;;5033994;28;20516;-72
2022/07/10 04:05:14;;;;;;;6.75;4.90;;;16.20;99.90;;;;;;5033767;28;20629;-72
2022/07/10 04:07:40;;;;;;;12.00;5.32;;;16.20;99.90;;;;;;5032769;28;20205;-73
2022/07/10 04:10:06;;;;;;;6.90;5.13;;;16.30;99.90;;;;;;5033723;28;20744;-73
2022/07/10 04:12:32;;;;;;;6.25;4.53;;;16.30;99.90;;;;;;5033297;28;20212;-72
2022/07/10 04:14:57;;;;;;;6.18;4.22;;;16.30;99.90;;;;;;5033837;28;20194;-72
2022/07/10 04:17:23;;;;;;;6.80;4.32;;;16.40;99.90;;;;;;5015823;28;20200;-73
2022/07/10 04:19:48;;;;;;;4.22;3.83;;;16.50;99.90;;;;;;5033281;28;20186;-73
2022/07/10 04:22:14;;;;;;;5.07;3.53;;;16.50;99.90;;;;;;5033842;28;20611;-73
2022/07/10 04:24:39;;;;;;;4.07;2.90;;;16.50;99.90;;;;;;5033291;28;20205;-73
2022/07/10 04:27:06;;;;;;;4.20;3.42;;;16.50;99.90;;;;;;5033009;28;20594;-73
2022/07/10 04:29:32;;;;;;;3.50;3.10;;;16.50;99.90;;;;;;5033138;28;20560;-73
2022/07/10 04:31:57;;;;;;;5.50;3.15;;;16.60;99.90;;;;;;5033202;28;20192;-72
2022/07/10 04:34:23;;;;;;;5.38;3.25;;;16.60;99.90;;;;;;5033122;28;20186;-73
2022/07/10 04:36:49;;;;;;;4.65;3.20;;;16.60;99.90;;;;;;5033037;28;20170;-73
2022/07/10 04:39:14;;;;;;;5.20;3.15;;;16.60;99.90;;;;;;5033357;28;20304;-73
2022/07/10 04:41:40;;;;;;;5.55;3.17;;;16.80;99.90;;;;;;5033366;28;20629;-73
2022/07/10 04:44:05;;;;;;;4.05;2.60;;;17.10;99.90;;;;;;5015588;28;20183;-73
2022/07/10 04:46:31;;;;;;;5.55;2.78;;;17.60;99.90;;;;;;5032673;28;20305;-74
2022/07/10 04:48:56;;;;;;;4.65;2.17;;;18.20;99.90;;;;;;5033375;28;20204;-74
2022/07/10 04:51:23;;;;;;;2.97;2.30;;;18.80;99.90;;;;;;5032970;28;20826;-74
2022/07/10 04:53:49;;;;;;;3.55;2.20;;;19.20;99.90;;;;;;5033288;28;20235;-75
2022/07/10 04:56:14;;;;;;;4.00;2.25;;;19.20;99.90;;;;;;5032203;28;20645;-75
2022/07/10 04:58:40;;;;;;;2.95;1.80;;;19.10;99.90;;;;;;5032752;28;21792;-75
2022/07/10 05:01:05;;;;;;;1.80;1.70;;;19.00;99.90;;;;;;5033452;28;20174;-73
2022/07/10 05:03:31;;;;;;;1.67;1.58;;;18.90;99.90;;;;;;5032784;28;20201;-74
2022/07/10 05:05:56;;;;;;;4.30;1.80;;;18.80;99.90;;;;;;5032546;28;20205;-73
2022/07/10 05:08:22;;;;;;;3.08;1.98;;;18.70;99.90;;;;;;5032017;28;20224;-72
2022/07/10 05:10:48;;;;;;;3.38;1.70;;;18.80;99.90;;;;;;5015446;28;20232;-73
2022/07/10 05:13:13;;;;;;;3.92;2.03;;;18.90;99.90;;;;;;5032208;28;20210;-73
2022/07/10 05:15:39;;;;;;;2.35;1.55;;;19.30;99.90;;;;;;5033114;28;20982;-72
2022/07/10 05:18:04;;;;;;;1.42;1.33;;;19.80;99.90;;;;;;5032117;28;20637;-73
2022/07/10 05:20:30;;;;;;;2.63;1.45;;;20.10;99.90;;;;;;5032345;28;20197;-73
2022/07/10 05:22:56;;;;;;;5.05;1.48;;;20.30;99.10;;;;;;5032669;28;20174;-74
2022/07/10 05:25:22;;;;;;;2.13;1.40;;;20.30;98.40;;;;;;5032116;28;20178;-74
2022/07/10 05:27:47;;;;;;;3.42;1.35;;;20.10;98.10;;;;;;5025120;28;20201;-74
2022/07/10 05:30:13;;;;;;;3.50;1.48;;;19.80;97.80;;;;;;5008446;28;20178;-73
2022/07/10 05:32:47;;;;;;;3.83;1.20;;;19.50;98.30;;;;;;5032120;28;20205;-73
2022/07/10 05:35:16;;;;;;;1.45;1.35;;;19.40;98.90;;;;;;5032751;28;20612;-73
2022/07/10 05:37:42;;;;;;;3.88;1.70;;;19.40;98.90;;;;;;5031709;28;20797;-74
2022/07/10 05:40:08;;;;;;;2.05;1.30;;;19.40;98.80;;;;;;5032520;28;20232;-75
2022/07/10 05:42:34;;;;;;;3.88;1.60;;;19.40;98.80;;;;;;5031952;28;20668;-75
2022/07/10 05:44:59;;;;;;;3.95;1.70;;;19.40;98.70;;;;;;5032571;28;20240;-73
2022/07/10 05:47:25;;;;;;;1.83;1.10;;;20.00;98.50;;;;;;5031405;28;20250;-74
2022/07/10 05:49:50;;;;;;;1.42;1.10;;;20.90;97.40;;;;;;5013926;28;20217;-73
2022/07/10 05:52:16;;;;;;;2.08;0.90;;;21.80;94.20;;;;;;5031745;28;20680;-73
2022/07/10 05:54:42;;;;;;;2.63;1.00;;;22.30;92.20;;;;;;5031778;28;20189;-74
2022/07/10 05:57:07;;;;;;;1.48;1.13;;;23.00;90.30;;;;;;5024841;28;20241;-75
2022/07/10 05:59:34;;;;;;;1.67;0.80;;;23.50;87.50;;;;;;5029150;28;20707;-74
2022/07/10 06:02:00;;;;;;;1.38;0.80;;;23.90;83.40;;;;;;5029327;28;20186;-73
2022/07/10 06:04:26;;;;;;;1.67;0.95;;;24.40;81.60;;;;;;5013435;28;20232;-72
2022/07/10 06:06:51;;;;;;;5.03;1.00;;;24.50;78.20;;;;;;5031617;28;20182;-73
2022/07/10 06:09:17;;;;;;;3.13;1.23;;;24.90;78.30;;;;;;5031836;28;20269;-73
2022/07/10 06:11:44;;;;;;;3.42;1.40;;;25.50;75.30;;;;;;5031554;28;20188;-73
2022/07/10 06:14:09;;;;;;;3.05;0.90;;;25.90;71.40;;;;;;5031542;28;20218;-72
2022/07/10 06:16:35;;;;;;;1.75;0.75;;;26.20;69.30;;;;;;5031789;28;20935;-72
2022/07/10 06:19:00;;;;;;;3.40;0.90;;;26.50;65.80;;;;;;5031427;28;20228;-71
2022/07/10 06:21:26;;;;;;;2.13;0.75;;;26.70;64.80;;;;;;5031825;28;20182;-72
2022/07/10 06:23:51;;;;;;;4.65;1.13;;;26.50;62.70;;;;;;5031420;28;20179;-72
2022/07/10 06:26:17;;;;;;;1.73;0.90;;;25.70;63.30;;;;;;5031755;28;20178;-72
2022/07/10 06:28:42;;;;;;;3.92;0.70;;;24.70;64.70;;;;;;5031005;28;20641;-72
2022/07/10 06:31:08;;;;;;;1.70;1.10;;;23.70;66.30;;;;;;5013356;28;20186;-72
2022/07/10 06:33:35;;;;;;;2.10;0.77;;;23.10;69.00;;;;;;5030193;28;20206;-72
2022/07/10 06:36:01;;;;;;;1.75;0.95;;;22.60;70.40;;;;;;5035673;28;20182;-72
2022/07/10 06:38:26;;;;;;;1.42;0.77;;;22.30;71.60;;;;;;5030997;28;20185;-72
2022/07/10 06:40:52;;;;;;;1.95;1.08;;;21.80;72.50;;;;;;5031094;28;20226;-72
2022/07/10 06:43:18;;;;;;;2.95;1.00;;;21.50;73.50;;;;;;5031645;28;20200;-70
2022/07/10 06:45:44;;;;;;;2.17;1.17;;;21.80;75.00;;;;;;5030762;28;20319;-68
2022/07/10 06:48:10;;;;;;;2.13;0.95;;;22.40;73.10;;;;;;5012301;28;20189;-68
2022/07/10 06:50:35;;;;;;;4.68;1.00;;;22.50;71.40;;;;;;5031606;28;20252;-69
2022/07/10 06:53:02;;;;;;;3.05;1.20;;;22.40;71.50;;;;;;5021957;28;20629;-69
2022/07/10 06:55:28;;;;;;;1.42;0.90;;;22.40;71.00;;;;;;5031329;28;20170;-69
2022/07/10 06:57:55;;;;;;;1.45;0.90;;;22.10;69.50;;;;;;5030741;28;20240;-70
2022/07/10 07:00:21;;;;;;;1.73;0.90;;;21.80;70.70;;;;;;5029972;28;20196;-69
2022/07/10 07:02:47;;;;;;;1.65;0.80;;;21.90;72.00;;;;;;5031504;28;20588;-72
2022/07/10 07:05:13;;;;;;;2.55;0.80;;;22.80;71.30;;;;;;5001182;28;20179;-71
2022/07/10 07:07:39;;;;;;;3.55;0.90;;;24.30;69.80;;;;;;5031280;28;20232;-71
2022/07/10 07:10:06;;;;;;;1.50;0.90;;;25.70;65.20;;;;;;5030858;28;20182;-71
2022/07/10 07:12:31;;;;;;;1.75;0.70;;;26.10;61.90;;;;;;5031149;28;20740;-68
2022/07/10 07:14:57;;;;;;;2.83;0.98;;;25.70;59.20;;;;;;5029360;28;20273;-68
2022/07/10 07:17:24;;;;;;;2.88;1.00;;;25.30;61.20;;;;;;5014919;28;20179;-71
2022/07/10 07:25:18;;;;;;;2.78;0.93;;;25.10;61.50;;;;;;5030595;28;20192;-68
2022/07/10 07:27:44;;;;;;;1.85;1.13;;;24.80;61.10;;;;;;5030783;28;20264;-70
2022/07/10 07:30:12;;;;;;;2.35;1.10;;;24.40;60.90;;;;;;5030630;28;20178;-67
2022/07/10 07:32:38;;;;;;;4.57;0.95;;;24.40;62.80;;;;;;5030530;28;20267;-67
2022/07/10 07:35:05;;;;;;;2.28;0.93;;;24.90;63.00;;;;;;5030349;28;20641;-67
2022/07/10 07:37:45;;;;;;;2.53;0.90;;;25.40;60.80;;;;;;5029968;28;20684;-71
2022/07/10 07:40:13;;;;;;;1.50;0.88;;;26.20;61.00;;;;;;5011131;28;20225;-70
2022/07/10 07:42:39;;;;;;;1.88;0.77;;;26.90;59.30;;;;;;5014613;28;20214;-71
2022/07/10 07:45:05;;;;;;;0.70;0.70;;;26.80;57.00;;;;;;5022285;28;20286;-71
2022/07/10 07:47:42;;;;;;;3.00;0.90;;;26.20;58.00;;;;;;5027515;28;20186;-71
2022/07/10 07:50:08;;;;;;;3.25;0.90;;;25.70;58.30;;;;;;5034181;28;20805;-71
2022/07/10 07:52:35;;;;;;;3.50;1.27;;;25.20;58.20;;;;;;5034249;28;20206;-71
2022/07/10 07:55:01;;;;;;;3.05;0.80;;;24.70;59.00;;;;;;5033543;28;20217;-71
2022/07/10 07:57:26;;;;;;;1.30;0.80;;;24.40;59.90;;;;;;5016424;28;20626;-71
2022/07/10 07:59:52;;;;;;;4.18;0.90;;;24.40;60.10;;;;;;5034150;28;20185;-70
2022/07/10 08:02:17;;;;;;;1.40;0.82;;;24.40;59.90;;;;;;5034528;28;20265;-70
2022/07/10 08:04:43;;;;;;;3.47;0.90;;;25.00;60.00;;;;;;5033800;28;20190;-71
2022/07/10 08:07:08;;;;;;;2.05;1.15;;;25.90;59.80;;;;;;5033925;28;20204;-71
2022/07/10 08:09:34;;;;;;;3.95;1.05;;;26.30;57.30;;;;;;5035057;28;20216;-71
2022/07/10 08:12:00;;;;;;;1.08;0.98;;;26.40;56.60;;;;;;5017229;28;20269;-71
2022/07/10 08:14:26;;;;;;;3.05;0.85;;;26.40;57.00;;;;;;5033961;28;20190;-70
2022/07/10 08:16:52;;;;;;;1.13;1.00;;;26.40;56.00;;;;;;5030289;28;20664;-71
2022/07/10 08:19:17;;;;;;;2.78;0.73;;;26.10;57.50;;;;;;5034091;28;20239;-71
2022/07/10 08:21:43;;;;;;;2.65;0.90;;;26.20;57.40;;;;;;5033207;28;20225;-70
2022/07/10 08:24:09;;;;;;;3.08;0.85;;;26.70;57.20;;;;;;5028908;28;20210;-70
2022/07/10 08:26:34;;;;;;;3.20;0.82;;;27.40;55.60;;;;;;5033746;28;20296;-71
2022/07/10 08:29:00;;;;;;;2.47;1.02;;;28.00;55.60;;;;;;5033979;28;20186;-70
2022/07/10 08:31:25;;;;;;;2.88;1.20;;;28.30;53.60;;;;;;5027307;28;20641;-70
2022/07/10 08:33:52;;;;;;;2.78;1.00;;;28.20;54.00;;;;;;5019545;28;20256;-70
2022/07/10 08:36:17;;;;;;;2.85;0.82;;;28.40;54.10;;;;;;5033890;28;20177;-69
2022/07/10 08:38:43;;;;;;;2.63;0.90;;;28.80;52.30;;;;;;5015446;28;20182;-70
2022/07/10 08:41:12;;;;;;;1.38;1.17;;;29.00;51.40;;;;;;5033441;28;20260;-69
2022/07/10 08:43:38;;;;;;;3.30;0.80;;;29.20;50.70;;;;;;5033467;28;20560;-70
2022/07/10 08:46:05;;;;;;;2.65;1.20;;;28.80;50.60;;;;;;5033321;28;20174;-70
2022/07/10 08:48:33;;;;;;;3.47;1.45;;;28.20;51.60;;;;;;5015243;28;20637;-70
2022/07/10 08:51:04;;;;;;;4.53;1.13;;;28.10;53.40;;;;;;5032512;28;20185;-71
2022/07/10 08:53:32;;;;;;;4.28;1.83;;;28.30;53.30;;;;;;5011672;28;20209;-71
2022/07/10 08:55:58;;;;;;;5.55;1.63;;;28.70;54.00;;;;;;5032698;28;20220;-70
2022/07/10 08:58:24;;;;;;;2.22;1.35;;;28.70;52.20;;;;;;5015217;28;20175;-70
2022/07/10 09:00:50;;;;;;;1.88;1.30;;;28.60;52.50;;;;;;5013483;28;20178;-70
2022/07/10 09:03:15;;;;;;;1.80;1.00;;;28.30;51.40;;;;;;5033137;28;20572;-74
2022/07/10 09:05:41;;;;;;;2.28;1.67;;;27.80;50.70;;;;;;5033445;28;20621;-71
2022/07/10 09:08:24;;;;;;;2.85;1.30;;;27.10;51.50;;;;;;5031380;28;20190;-72
2022/07/10 09:10:50;;;;;;;2.90;1.20;;;26.50;53.20;;;;;;5032901;28;20186;-73
2022/07/10 09:13:16;;;;;;;3.67;1.50;;;25.80;53.80;;;;;;5044017;28;20217;-72
2022/07/10 09:15:48;;;;;;;3.72;1.80;;;25.20;55.30;;;;;;5037002;28;20178;-72
2022/07/10 09:18:20;;;;;;;4.43;1.70;;;24.80;55.60;;;;;;5032618;28;20524;-73
2022/07/10 09:20:46;;;;;;;5.40;1.40;;;24.70;55.10;;;;;;5032852;28;20178;-73
2022/07/10 09:23:22;;;;;;;2.08;1.27;;;24.60;56.50;;;;;;5033008;28;20186;-72
2022/07/10 09:25:51;;;;;;;2.33;1.52;;;24.60;56.50;;;;;;5032205;28;20216;-73
2022/07/10 09:28:19;;;;;;;2.47;1.10;;;24.40;56.50;;;;;;5032248;28;20540;-71
2022/07/10 09:30:45;;;;;;;3.65;2.20;;;24.00;56.50;;;;;;5020116;28;20177;-73
2022/07/10 09:33:25;;;;;;;2.97;1.60;;;23.70;56.80;;;;;;5048865;28;20347;-72
2022/07/10 09:36:13;;;;;;;1.45;1.15;;;23.50;57.50;;;;;;5038815;28;20235;-72
2022/07/10 09:38:46;;;;;;;1.10;1.00;;;23.50;57.90;;;;;;5032738;28;20823;-72
2022/07/10 09:41:12;;;;;;;2.63;0.82;;;23.90;58.30;;;;;;5033043;28;20194;-72
2022/07/10 09:43:52;;;;;;;2.63;1.02;;;24.20;57.30;;;;;;5022237;28;20162;-72
2022/07/10 09:46:21;;;;;;;1.80;1.25;;;24.50;56.60;;;;;;5050576;28;20539;-72
2022/07/10 09:48:47;;;;;;;1.33;0.90;;;25.00;56.70;;;;;;5015702;28;20182;-72
2022/07/10 09:51:13;;;;;;;2.17;1.10;;;25.20;54.40;;;;;;5033247;28;20633;-74
2022/07/10 09:53:44;;;;;;;1.48;1.00;;;25.00;53.20;;;;;;5033376;28;20217;-73
2022/07/10 09:56:12;;;;;;;1.63;0.60;;;25.10;55.30;;;;;;5033105;28;20166;-72
2022/07/10 09:58:38;;;;;;;3.03;0.88;;;25.50;55.30;;;;;;5015524;28;20179;-73
2022/07/10 10:01:06;;;;;;;1.98;0.80;;;25.90;53.80;;;;;;5013440;28;20574;-74
2022/07/10 10:03:37;;;;;;;2.35;1.00;;;26.40;53.50;;;;;;5013127;28;20668;-74
2022/07/10 10:06:16;;;;;;;2.17;1.00;;;26.80;52.50;;;;;;5031365;28;20634;-74
2022/07/10 10:09:03;;;;;;;1.55;0.65;;;26.90;50.70;;;;;;5032240;28;20216;-74
2022/07/10 10:11:32;;;;;;;2.05;0.95;;;27.10;49.90;;;;;;5031005;28;20188;-73
2022/07/10 10:13:58;;;;;;;2.70;1.20;;;27.10;50.70;;;;;;5029400;28;20255;-72
2022/07/10 10:16:27;;;;;;;0.93;0.80;;;27.10;50.60;;;;;;5032021;28;20174;-73
2022/07/10 10:21:39;;;;;;;1.10;0.80;;;27.10;51.40;;;;;;5017510;28;20189;-74
2022/07/10 10:24:06;;;;;;;2.22;0.95;;;27.30;49.80;;;;;;5031601;28;20261;-72
2022/07/10 10:26:32;;;;;;;1.65;0.70;;;27.30;49.70;;;;;;5033287;28;20182;-72
2022/07/10 10:29:00;;;;;;;1.33;0.63;;;27.60;50.80;;;;;;5015173;28;20175;-74
2022/07/10 10:31:30;;;;;;;4.18;0.70;;;27.70;49.20;;;;;;5029556;28;20186;-73
2022/07/10 10:33:57;;;;;;;1.38;0.50;;;27.60;48.50;;;;;;5014064;28;20301;-73
2022/07/10 10:36:41;;;;;;;0.65;0.50;;;27.40;48.60;;;;;;5031421;28;20174;-73
2022/07/10 10:39:19;;;;;;;1.85;0.68;;;27.50;49.30;;;;;;5041960;28;20252;-74
2022/07/10 10:41:48;;;;;;;0.80;0.70;;;27.30;48.50;;;;;;5030824;28;20188;-73
2022/07/10 10:44:23;;;;;;;1.15;0.50;;;27.20;48.70;;;;;;5021092;28;20179;-74
2022/07/10 10:47:06;;;;;;;1.88;0.98;;;27.00;49.50;;;;;;5018722;28;20660;-72
2022/07/10 10:49:49;;;;;;;3.10;1.00;;;27.10;49.70;;;;;;4998414;28;20274;-73
2022/07/10 10:52:16;;;;;;;1.23;0.60;;;27.50;49.90;;;;;;5031376;28;20536;-72
2022/07/10 10:54:57;;;;;;;1.08;0.68;;;27.80;48.20;;;;;;5031658;28;20657;-72
2022/07/10 10:57:39;;;;;;;4.35;0.80;;;28.20;47.90;;;;;;5031318;28;20263;-71
2022/07/10 11:00:07;;;;;;;2.65;0.82;;;28.20;47.40;;;;;;5022316;28;20537;-72
2022/07/10 11:02:40;;;;;;;1.77;0.60;;;28.20;46.90;;;;;;5036779;28;20649;-71
2022/07/10 11:05:12;;;;;;;1.88;0.60;;;28.20;45.80;;;;;;5033706;28;20184;-73
2022/07/10 11:08:00;;;;;;;1.23;0.55;;;27.80;45.50;;;;;;5044462;28;20264;-75
2022/07/10 11:10:35;;;;;;;2.70;0.50;;;27.50;46.50;;;;;;5011879;28;20179;-74
2022/07/10 11:13:02;;;;;;;1.95;0.60;;;27.70;46.40;;;;;;5019309;28;20212;-73
2022/07/10 11:15:30;;;;;;;4.07;1.27;;;27.90;46.90;;;;;;5031629;28;20645;-72
2022/07/10 11:17:57;;;;;;;1.83;0.90;;;27.90;44.60;;;;;;5035245;28;20535;-73
2022/07/10 11:20:23;;;;;;;2.45;1.20;;;27.90;45.90;;;;;;5034900;28;20210;-72
2022/07/10 11:23:12;;;;;;;0.95;0.60;;;28.00;46.20;;;;;;5035275;28;20577;-72
2022/07/10 11:25:43;;;;;;;0.85;0.40;;;27.90;45.80;;;;;;5035279;28;20501;-73
2022/07/10 11:28:11;;;;;;;1.95;0.88;;;27.20;46.50;;;;;;5034986;28;20182;-72
2022/07/10 11:30:51;;;;;;;3.70;0.77;;;26.90;48.10;;;;;;5034471;28;20193;-73
2022/07/10 11:33:18;;;;;;;1.50;0.75;;;27.10;47.90;;;;;;5017135;28;20296;-72
2022/07/10 11:35:49;;;;;;;2.38;0.65;;;26.90;47.30;;;;;;5035150;28;20204;-71
2022/07/10 11:38:24;;;;;;;1.10;0.68;;;26.30;48.20;;;;;;5035004;28;20178;-72
2022/07/10 11:40:53;;;;;;;0.80;0.50;;;26.00;47.90;;;;;;5034750;28;20597;-72
2022/07/10 11:43:22;;;;;;;1.50;0.52;;;26.20;49.30;;;;;;5034674;28;20641;-74
2022/07/10 11:45:48;;;;;;;1.35;0.60;;;26.50;49.60;;;;;;5034204;28;20189;-74
2022/07/10 11:48:18;;;;;;;1.67;0.60;;;26.70;48.50;;;;;;5013441;28;20566;-73
2022/07/10 11:50:44;;;;;;;1.50;0.68;;;26.70;47.70;;;;;;5034746;28;20260;-73
2022/07/10 11:53:10;;;;;;;1.35;0.55;;;26.50;47.60;;;;;;5034150;28;20206;-72
2022/07/10 11:55:39;;;;;;;0.52;0.52;;;26.10;47.70;;;;;;5034356;28;20178;-73
2022/07/10 11:58:16;;;;;;;2.92;0.73;;;25.90;49.30;;;;;;5034127;28;20201;-72
2022/07/10 12:00:42;;;;;;;2.33;0.60;;;26.10;48.70;;;;;;5034388;28;20185;-72
2022/07/10 12:03:19;;;;;;;1.95;0.70;;;26.20;47.60;;;;;;5034211;28;20186;-72
2022/07/10 12:05:46;;;;;;;1.30;0.60;;;26.40;48.00;;;;;;5034230;28;20174;-74
2022/07/10 12:08:13;;;;;;;3.35;0.93;;;26.60;48.40;;;;;;5033979;28;20178;-72
2022/07/10 12:10:41;;;;;;;1.23;0.80;;;27.00;48.60;;;;;;5034251;28;20190;-72
2022/07/10 12:13:10;;;;;;;3.67;2.70;;;27.30;47.60;;;;;;5033890;28;20232;-71
2022/07/10 12:15:45;;;;;;;1.60;1.50;;;27.40;47.10;;;;;;5020480;28;20188;-71
2022/07/10 12:18:20;;;;;;;3.42;2.00;;;27.30;46.70;;;;;;5034046;28;20184;-71
2022/07/10 12:20:47;;;;;;;4.00;2.78;;;27.20;46.80;;;;;;5033747;28;20201;-72
2022/07/10 12:23:18;;;;;;;3.75;1.27;;;27.30;47.50;;;;;;5032681;28;20281;-71
2022/07/10 12:25:46;;;;;;;1.65;0.50;;;27.40;46.00;;;;;;5032609;28;20302;-71
2022/07/10 12:28:14;;;;;;;2.65;0.75;;;27.40;45.90;;;;;;5032228;28;20186;-71
2022/07/10 12:30:43;;;;;;;3.20;1.00;;;27.30;45.60;;;;;;5020264;28;20190;-71
2022/07/10 12:33:10;;;;;;;2.42;1.00;;;27.30;46.60;;;;;;5035967;28;20225;-71
2022/07/10 12:35:56;;;;;;;2.67;0.80;;;27.50;46.90;;;;;;5033642;28;20178;-71
2022/07/10 12:38:26;;;;;;;18.42;11.90;;;27.70;47.20;;;;;;5029656;28;20186;-71
2022/07/10 12:41:07;;;;;;;2.53;2.03;;;27.60;46.60;;;;;;5033504;28;20268;-71
2022/07/10 12:43:33;;;;;;;3.20;1.95;;;27.20;45.70;;;;;;5029436;28;20180;-71
2022/07/10 12:46:12;;;;;;;1.05;0.73;;;26.60;46.20;;;;;;5031656;28;20182;-71
2022/07/10 12:48:40;;;;;;;1.65;0.90;;;26.10;46.80;;;;;;5033816;28;20645;-70
2022/07/10 12:51:27;;;;;;;0.80;0.60;;;25.90;47.50;;;;;;5033659;28;20183;-71
2022/07/10 12:53:53;;;;;;;2.78;0.93;;;25.90;47.90;;;;;;5033615;28;20260;-71
2022/07/10 12:56:32;;;;;;;1.55;0.70;;;26.00;47.20;;;;;;5039648;28;20182;-72
2022/07/10 12:59:02;;;;;;;1.80;0.90;;;25.90;47.80;;;;;;5030605;28;20193;-72